Indianola, Washington
Current Conditions -  °F | °C
As of 12:33 AM on Friday 19 Dec 2014 (Local Time) from KPAE Reporting Station
Light Rain Light Rain  
Wind Chill: 40°   Ceiling: 800
Heat Index: 47°   Visibility: 10mi
Dew Point: 44°   Wind: 16mph
Humidity: 90%   Direction: 160°SSE
Pressure: 29.76"   Gusts: 23mph
Location:  47.75°N, 122.53°W
Report Text: KPAE 190833Z AUTO 16014G20KT 10SM -RA BKN008 BKN050 OVC090 08/07 A2976 RMK AO2 P0001 T00830067 TSNO
Loading
Personal Weather Stations






























Interactive Weather Map New forecast layout! Learn more

10-Day Weather Forecast

Advertisements
Track Severe Weather on mobile